Time,TemperatureF,DewpointF,PressureIn,WindDirection,WindDirectionDegrees,WindSpeedMPH,WindSpeedGustMPH,Humidity,HourlyPrecipIn,Conditions,Clouds,dailyrainin,SoftwareType,DateUTC
2013-04-14 01:12:00,33.0,32.0,-100.00,East,100,21.0,30.0,98,0.00,,,0.01,,2013-04-14 06:12:00,
2013-04-14 01:22:00,33.0,32.0,-100.00,East,90,22.0,31.0,98,0.00,,,0.01,,2013-04-14 06:22:00,
2013-04-14 01:32:00,33.0,32.0,-100.00,East,100,22.0,29.0,98,0.00,,,0.01,,2013-04-14 06:32:00,
2013-04-14 01:42:00,33.0,32.0,-100.00,East,95,23.0,30.0,98,0.00,,,0.01,,2013-04-14 06:42:00,
2013-04-14 01:52:00,33.0,32.0,-100.00,East,90,22.0,30.0,98,0.00,,,0.01,,2013-04-14 06:52:00,
2013-04-14 02:02:00,33.0,32.0,-100.00,East,90,21.0,29.0,98,0.00,,,0.01,,2013-04-14 07:02:00,
2013-04-14 02:12:00,33.0,32.0,-100.00,East,90,17.0,28.0,98,0.00,,,0.01,,2013-04-14 07:12:00,
2013-04-14 02:22:00,33.0,32.0,-100.00,East,90,19.0,27.0,98,0.00,,,0.01,,2013-04-14 07:22:00,
2013-04-14 02:32:00,33.0,32.0,-100.00,East,80,21.0,26.0,98,0.00,,,0.01,,2013-04-14 07:32:00,
2013-04-14 02:42:00,33.0,32.0,-100.00,East,80,19.0,26.0,98,0.00,,,0.01,,2013-04-14 07:42:00,
2013-04-14 03:22:00,34.0,34.0,-100.00,East,95,26.0,31.0,98,0.00,,,0.01,,2013-04-14 08:22:00,
2013-04-14 03:32:00,34.0,34.0,-100.00,East,95,21.0,28.0,98,0.00,,,0.01,,2013-04-14 08:32:00,
2013-04-14 03:42:00,34.0,34.0,-100.00,East,95,24.0,30.0,98,0.00,,,0.01,,2013-04-14 08:42:00,
2013-04-14 03:52:00,34.0,34.0,-100.00,East,100,23.0,29.0,98,0.00,,,0.01,,2013-04-14 08:52:00,
2013-04-14 08:02:00,34.0,34.0,-100.00,ESE,110,21.0,31.0,99,0.00,,,0.01,,2013-04-14 13:02:00,
2013-04-14 08:52:00,34.0,34.0,-100.00,ESE,110,26.0,34.0,99,0.00,,,0.01,,2013-04-14 13:52:00,
2013-04-14 09:02:00,34.0,34.0,-100.00,ESE,105,21.0,33.0,99,0.00,,,0.01,,2013-04-14 14:02:00,
2013-04-14 09:12:00,34.0,34.0,-100.00,ESE,110,23.0,32.0,99,0.00,,,0.01,,2013-04-14 14:12:00,
2013-04-14 09:22:00,34.0,34.0,-100.00,ESE,110,20.0,29.0,99,0.00,,,0.01,,2013-04-14 14:22:00,
2013-04-14 09:32:00,34.0,34.0,-100.00,ESE,110,19.0,29.0,99,0.00,,,0.01,,2013-04-14 14:32:00,
2013-04-14 09:42:00,34.0,34.0,-100.00,ESE,115,21.0,32.0,99,0.00,,,0.01,,2013-04-14 14:42:00,
2013-04-14 09:52:00,34.0,34.0,-100.00,ESE,120,21.0,32.0,99,0.00,,,0.01,,2013-04-14 14:52:00,
2013-04-14 10:02:00,34.0,34.0,-100.00,SE,125,19.0,30.0,99,0.00,,,0.01,,2013-04-14 15:02:00,
2013-04-14 10:12:00,34.0,34.0,-100.00,ESE,115,19.0,26.0,99,0.00,,,0.01,,2013-04-14 15:12:00,
2013-04-14 10:22:00,34.0,34.0,-100.00,East,100,17.0,27.0,99,0.00,,,0.01,,2013-04-14 15:22:00,
2013-04-14 12:12:00,36.0,36.0,-100.00,ESE,110,18.0,29.0,99,0.00,,,0.01,,2013-04-14 17:12:00,
2013-04-14 12:22:00,36.0,36.0,-100.00,ESE,115,20.0,28.0,99,0.00,,,0.01,,2013-04-14 17:22:00,
2013-04-14 12:32:00,36.0,36.0,-100.00,SE,125,20.0,28.0,99,0.00,,,0.01,,2013-04-14 17:32:00,
2013-04-14 12:42:00,36.0,36.0,-100.00,SE,125,19.0,25.0,99,0.00,,,0.01,,2013-04-14 17:42:00,
2013-04-14 12:52:00,36.0,36.0,-100.00,ESE,120,19.0,24.0,99,0.00,,,0.01,,2013-04-14 17:52:00,
2013-04-14 13:02:00,36.0,36.0,-100.00,ESE,120,20.0,22.0,99,0.00,,,0.01,,2013-04-14 18:02:00,
2013-04-14 13:12:00,36.0,36.0,-100.00,SE,125,17.0,22.0,99,0.00,,,0.01,,2013-04-14 18:12:00,
2013-04-14 16:12:00,38.0,37.0,-100.00,East,90,4.0,7.0,99,0.00,,,0.01,,2013-04-14 21:12:00,
2013-04-14 16:22:00,38.0,37.0,-100.00,SW,215,5.0,9.0,99,0.00,,,0.01,,2013-04-14 21:22:00,
2013-04-14 17:23:00,38.0,37.0,-100.00,WSW,255,17.0,22.0,99,0.00,,,0.01,,2013-04-14 22:23:00,
2013-04-14 17:32:00,38.0,37.0,-100.00,WSW,255,16.0,21.0,99,0.00,,,0.01,,2013-04-14 22:32:00,
2013-04-14 17:43:00,37.0,37.0,-100.00,West,260,16.0,20.0,99,0.00,,,0.01,,2013-04-14 22:43:00,
2013-04-14 18:02:00,38.0,37.0,-100.00,West,265,18.0,26.0,99,0.00,,,0.01,,2013-04-14 23:02:00,
2013-04-14 18:12:00,38.0,37.0,-100.00,West,265,21.0,28.0,99,0.00,,,0.01,,2013-04-14 23:12:00,
2013-04-14 18:22:00,38.0,37.0,-100.00,West,270,24.0,29.0,99,0.00,,,0.01,,2013-04-14 23:22:00,
2013-04-14 18:32:00,38.0,37.0,-100.00,West,270,18.0,26.0,99,0.00,,,0.01,,2013-04-14 23:32:00,
2013-04-14 18:42:00,38.0,37.0,-100.00,West,265,21.0,27.0,98,0.00,,,0.01,,2013-04-14 23:42:00,
2013-04-14 18:52:00,38.0,37.0,-100.00,West,270,24.0,29.0,96,0.00,,,0.01,,2013-04-14 23:52:00,
2013-04-14 19:02:00,38.0,37.0,-100.00,West,270,22.0,31.0,93,0.00,,,0.01,,2013-04-15 00:02:00,
2013-04-14 19:12:00,39.0,37.0,-100.00,West,260,23.0,28.0,93,0.00,,,0.01,,2013-04-15 00:12:00,
2013-04-14 19:22:00,39.0,37.0,-100.00,West,265,22.0,30.0,91,0.00,,,0.01,,2013-04-15 00:22:00,
2013-04-14 19:32:00,39.0,36.0,-100.00,West,265,22.0,30.0,90,0.00,,,0.01,,2013-04-15 00:32:00,
2013-04-14 19:42:00,38.0,36.0,-100.00,West,270,19.0,27.0,90,0.00,,,0.01,,2013-04-15 00:42:00,
2013-04-14 19:52:00,38.0,36.0,-100.00,West,260,24.0,32.0,88,0.00,,,0.01,,2013-04-15 00:52:00,
2013-04-14 20:02:00,38.0,34.0,-100.00,WSW,250,24.0,29.0,88,0.00,,,0.01,,2013-04-15 01:02:00,
2013-04-14 20:12:00,37.0,34.0,-100.00,West,260,22.0,30.0,88,0.00,,,0.01,,2013-04-15 01:12:00,
2013-04-14 20:23:00,37.0,34.0,-100.00,West,265,28.0,34.0,86,0.00,,,0.01,,2013-04-15 01:23:00,
2013-04-14 20:32:00,37.0,34.0,-100.00,West,260,22.0,33.0,86,0.00,,,0.01,,2013-04-15 01:32:00,
2013-04-14 20:42:00,36.0,32.0,-100.00,West,260,24.0,35.0,86,0.00,,,0.01,,2013-04-15 01:42:00,
2013-04-14 20:52:00,36.0,32.0,-100.00,West,260,25.0,32.0,86,0.00,,,0.01,,2013-04-15 01:52:00,
2013-04-14 21:02:00,36.0,32.0,-100.00,West,260,24.0,31.0,86,0.00,,,0.01,,2013-04-15 02:02:00,
2013-04-14 21:12:00,36.0,32.0,-100.00,West,265,23.0,31.0,84,0.00,,,0.01,,2013-04-15 02:12:00,
2013-04-14 21:22:00,36.0,32.0,-100.00,West,260,21.0,26.0,85,0.00,,,0.01,,2013-04-15 02:22:00,
2013-04-14 21:32:00,36.0,32.0,-100.00,West,260,21.0,29.0,85,0.00,,,0.01,,2013-04-15 02:32:00,
2013-04-14 21:42:00,36.0,32.0,-100.00,West,260,17.0,24.0,87,0.00,,,0.01,,2013-04-15 02:42:00,
2013-04-14 21:52:00,36.0,32.0,-100.00,West,260,21.0,26.0,87,0.00,,,0.01,,2013-04-15 02:52:00,
2013-04-14 22:03:00,35.0,32.0,-100.00,WSW,255,18.0,30.0,87,0.00,,,0.01,,2013-04-15 03:03:00,
2013-04-14 22:12:00,35.0,32.0,-100.00,West,260,21.0,25.0,88,0.00,,,0.01,,2013-04-15 03:12:00,
2013-04-14 22:22:00,35.0,32.0,-100.00,WSW,255,21.0,26.0,88,0.00,,,0.01,,2013-04-15 03:22:00,
2013-04-14 22:32:00,35.0,32.0,-100.00,West,260,22.0,30.0,88,0.00,,,0.01,,2013-04-15 03:32:00,
2013-04-14 22:43:00,35.0,32.0,-100.00,West,260,22.0,28.0,87,0.00,,,0.01,,2013-04-15 03:43:00,
2013-04-14 22:54:00,35.0,32.0,-100.00,West,260,22.0,32.0,86,0.00,,,0.01,,2013-04-15 03:54:00,
2013-04-14 23:03:00,36.0,32.0,-100.00,West,260,24.0,29.0,86,0.00,,,0.01,,2013-04-15 04:03:00,
2013-04-14 23:13:00,35.0,32.0,-100.00,WSW,255,22.0,29.0,86,0.00,,,0.00,,2013-04-15 04:13:00,
2013-04-14 23:22:00,36.0,32.0,-100.00,West,260,27.0,33.0,84,0.00,,,0.00,,2013-04-15 04:22:00,
2013-04-14 23:33:00,35.0,30.0,-100.00,West,260,24.0,32.0,84,0.00,,,0.00,,2013-04-15 04:33:00,
2013-04-14 23:42:00,35.0,30.0,-100.00,West,260,23.0,34.0,84,0.00,,,0.00,,2013-04-15 04:42:00,
2013-04-14 23:52:00,35.0,30.0,-100.00,WSW,250,22.0,33.0,84,0.00,,,0.00,,2013-04-15 04:52:00,